createdAt,value
2019-04-28T00:00:35.421Z,7.82
2019-04-28T00:03:04.189Z,7.82
2019-04-28T00:05:33.262Z,7.77
2019-04-28T00:08:01.973Z,7.74
2019-04-28T00:10:32.075Z,7.72
2019-04-28T00:13:01.053Z,7.67
2019-04-28T00:15:30.818Z,7.67
2019-04-28T00:18:01.889Z,7.52
2019-04-28T00:21:02.813Z,7.34
2019-04-28T00:23:40.187Z,7.26
2019-04-28T00:26:17.588Z,7.38
2019-04-28T00:28:46.278Z,7.45
2019-04-28T00:31:14.988Z,7.36
2019-04-28T00:33:43.708Z,7.30
2019-04-28T00:36:12.741Z,7.11
2019-04-28T00:38:41.763Z,6.98
2019-04-28T00:41:10.970Z,6.85
2019-04-28T00:43:41.686Z,7.12
2019-04-28T00:46:11.025Z,7.12
2019-04-28T00:48:40.990Z,6.97
2019-04-28T00:51:11.493Z,6.87
2019-04-28T00:53:40.888Z,6.86
2019-04-28T00:56:11.747Z,6.85
2019-04-28T00:58:41.725Z,6.89
2019-04-28T01:01:13.637Z,7.07
2019-04-28T01:03:42.337Z,6.98
2019-04-28T01:06:11.593Z,7.00
2019-04-28T01:08:41.921Z,7.00
2019-04-28T01:11:11.743Z,7.08
2019-04-28T01:13:41.965Z,6.90
2019-04-28T01:16:20.580Z,6.92
2019-04-28T01:18:56.767Z,6.92
2019-04-28T01:21:30.006Z,6.82
2019-04-28T01:23:59.843Z,6.83
2019-04-28T01:26:29.964Z,6.92
2019-04-28T01:28:59.676Z,6.79
2019-04-28T01:31:49.410Z,6.74
2019-04-28T01:34:20.615Z,6.68
2019-04-28T01:36:51.592Z,6.61
2019-04-28T01:39:20.168Z,6.80
2019-04-28T01:41:49.649Z,6.88
2019-04-28T01:44:19.840Z,6.87
2019-04-28T01:46:49.624Z,6.83
2019-04-28T01:49:19.565Z,6.93
2019-04-28T01:51:57.896Z,7.06
2019-04-28T01:54:26.714Z,7.09
2019-04-28T01:56:55.454Z,6.96
2019-04-28T01:59:24.235Z,6.98
2019-04-28T02:01:53.174Z,6.92
2019-04-28T02:04:21.915Z,7.00
2019-04-28T02:06:50.624Z,6.96
2019-04-28T02:09:19.605Z,6.84
2019-04-28T02:11:49.773Z,6.85
2019-04-28T02:14:19.574Z,6.84
2019-04-28T02:16:50.311Z,6.78
2019-04-28T02:19:20.356Z,6.82
2019-04-28T02:21:59.392Z,6.82
2019-04-28T02:24:28.254Z,6.95
2019-04-28T02:26:57.101Z,6.96
2019-04-28T02:29:25.848Z,7.02
2019-04-28T02:31:54.524Z,6.96
2019-04-28T02:34:23.207Z,6.95
2019-04-28T02:36:53.795Z,6.80
2019-04-28T02:39:22.578Z,6.77
2019-04-28T02:41:51.415Z,6.59
2019-04-28T02:44:23.446Z,6.68
2019-04-28T02:46:50.929Z,6.70
2019-04-28T02:49:25.117Z,6.66
2019-04-28T02:52:07.240Z,6.64
2019-04-28T02:54:35.918Z,6.81
2019-04-28T02:57:04.685Z,7.03
2019-04-28T02:59:33.355Z,7.03
2019-04-28T03:02:02.093Z,7.12
2019-04-28T03:04:31.031Z,7.11
2019-04-28T03:07:01.362Z,6.96
2019-04-28T03:09:30.742Z,6.83
2019-04-28T03:12:01.415Z,6.80
2019-04-28T03:14:30.683Z,6.97
2019-04-28T03:17:00.821Z,6.89
2019-04-28T03:19:33.633Z,6.84
2019-04-28T03:22:01.324Z,6.81
2019-04-28T03:24:31.604Z,6.89
2019-04-28T03:27:11.911Z,6.94
2019-04-28T03:29:50.435Z,6.84
2019-04-28T03:32:36.641Z,6.78
2019-04-28T03:34:54.986Z,6.76
2019-04-28T03:37:24.161Z,6.76
2019-04-28T03:39:53.251Z,6.79
2019-04-28T03:42:22.352Z,6.75
2019-04-28T03:44:51.489Z,6.80
2019-04-28T03:47:21.042Z,6.77
2019-04-28T03:49:50.811Z,6.62
2019-04-28T03:52:21.224Z,6.53
2019-04-28T03:54:51.088Z,6.51
2019-04-28T03:57:21.484Z,6.47
2019-04-28T03:59:51.363Z,6.47
2019-04-28T04:02:23.358Z,6.53
2019-04-28T04:04:52.496Z,6.47
2019-04-28T04:07:21.818Z,6.47
2019-04-28T04:10:12.567Z,6.37
2019-04-28T04:13:01.081Z,6.47
2019-04-28T04:15:55.281Z,6.64
2019-04-28T04:18:36.653Z,6.68
2019-04-28T04:21:05.368Z,6.58
2019-04-28T04:23:34.026Z,6.55
2019-04-28T04:26:02.702Z,6.46
2019-04-28T04:28:31.377Z,6.65
2019-04-28T04:31:02.957Z,6.74
2019-04-28T04:33:31.156Z,6.87
2019-04-28T04:36:01.608Z,6.88
2019-04-28T04:38:31.214Z,6.87
2019-04-28T04:41:01.420Z,7.02
2019-04-28T04:43:31.110Z,7.10
2019-04-28T04:46:15.072Z,7.22
2019-04-28T04:48:44.211Z,7.38
2019-04-28T04:51:12.976Z,7.46
2019-04-28T04:53:41.739Z,7.57
2019-04-28T04:56:10.612Z,7.65
2019-04-28T04:58:40.680Z,7.72
2019-04-28T05:01:20.352Z,7.83
2019-04-28T05:03:50.609Z,7.84
2019-04-28T05:06:44.270Z,7.92
2019-04-28T05:09:13.000Z,7.87
2019-04-28T05:11:41.682Z,8.17
2019-04-28T05:14:12.081Z,8.30
2019-04-28T05:16:40.945Z,8.40
2019-04-28T05:19:10.352Z,8.48
2019-04-28T05:21:40.481Z,8.64
2019-04-28T05:24:25.839Z,8.75
2019-04-28T05:26:54.528Z,8.82
2019-04-28T05:29:26.946Z,8.88
2019-04-28T05:31:54.733Z,9.08
2019-04-28T05:34:24.582Z,9.25
2019-04-28T05:36:53.407Z,8.98
2019-04-28T05:39:22.103Z,9.37
2019-04-28T05:41:50.757Z,9.59
2019-04-28T05:44:20.183Z,10.00
2019-04-28T05:46:50.619Z,10.09
2019-04-28T05:49:29.635Z,10.19
2019-04-28T05:52:02.206Z,10.46
2019-04-28T05:54:47.064Z,10.77
2019-04-28T05:57:21.103Z,10.87
2019-04-28T06:00:10.690Z,10.80
2019-04-28T06:02:55.513Z,10.97
2019-04-28T06:05:12.927Z,10.96
2019-04-28T06:07:49.903Z,10.82
2019-04-28T06:10:20.156Z,11.01
2019-04-28T06:12:49.577Z,11.09
2019-04-28T06:15:20.353Z,11.15
2019-04-28T06:17:49.825Z,11.10
2019-04-28T06:20:20.106Z,10.19
2019-04-28T06:22:48.933Z,10.40
2019-04-28T06:25:17.589Z,10.65
2019-04-28T06:27:46.265Z,10.64
2019-04-28T06:30:15.363Z,10.47
2019-04-28T06:32:44.023Z,10.30
2019-04-28T06:35:12.858Z,10.62
2019-04-28T06:37:41.535Z,10.48
2019-04-28T06:40:10.448Z,10.58
2019-04-28T06:42:39.145Z,10.89
2019-04-28T06:45:07.961Z,10.91
2019-04-28T06:47:36.624Z,10.70
2019-04-28T06:50:05.788Z,10.58
2019-04-28T06:52:34.440Z,10.70
2019-04-28T06:55:03.186Z,10.85
2019-04-28T06:57:31.872Z,10.53
2019-04-28T07:00:00.534Z,10.65
2019-04-28T07:02:29.227Z,10.83
2019-04-28T07:05:02.347Z,10.71
2019-04-28T07:07:28.353Z,10.98
2019-04-28T07:09:57.044Z,11.25
2019-04-28T07:12:25.705Z,11.62
2019-04-28T07:14:54.368Z,10.89
2019-04-28T07:17:23.046Z,10.89
2019-04-28T07:20:00.054Z,10.93
2019-04-28T07:22:29.885Z,10.89
2019-04-28T07:24:58.566Z,10.80
2019-04-28T07:27:27.227Z,10.74
2019-04-28T07:29:55.914Z,10.79
2019-04-28T07:32:24.602Z,10.98
2019-04-28T07:34:53.260Z,11.03
2019-04-28T07:37:21.944Z,11.06
2019-04-28T07:39:50.607Z,11.42
2019-04-28T07:42:19.302Z,11.05
2019-04-28T07:44:47.952Z,11.32
2019-04-28T07:47:16.642Z,11.47
2019-04-28T07:49:45.300Z,11.32
2019-04-28T07:52:23.259Z,11.23
2019-04-28T07:54:51.998Z,11.83
2019-04-28T07:57:20.675Z,12.30
2019-04-28T07:59:49.390Z,13.80
2019-04-28T08:02:18.060Z,13.46
2019-04-28T08:04:46.729Z,12.70
2019-04-28T08:07:15.420Z,12.59
2019-04-28T08:09:44.086Z,13.13
2019-04-28T08:12:12.820Z,13.09
2019-04-28T08:14:41.513Z,13.28
2019-04-28T08:17:10.201Z,13.01
2019-04-28T08:19:38.887Z,12.02
2019-04-28T08:22:07.732Z,11.02
2019-04-28T08:24:36.393Z,10.85
2019-04-28T08:27:05.151Z,10.55
2019-04-28T08:29:33.846Z,10.60
2019-04-28T08:32:10.822Z,10.57
2019-04-28T08:34:39.602Z,10.63
2019-04-28T08:37:08.349Z,10.77
2019-04-28T08:39:37.011Z,10.99
2019-04-28T08:42:05.845Z,10.93
2019-04-28T08:44:34.625Z,11.06
2019-04-28T08:47:03.366Z,11.32
2019-04-28T08:49:32.036Z,11.48
2019-04-28T08:52:00.817Z,11.62
2019-04-28T08:54:29.623Z,11.98
2019-04-28T08:56:58.298Z,12.30
2019-04-28T08:59:26.997Z,12.95
2019-04-28T09:01:55.672Z,13.71
2019-04-28T09:04:24.328Z,13.85
2019-04-28T09:06:53.099Z,14.23
2019-04-28T09:09:21.782Z,13.72
2019-04-28T09:11:50.541Z,13.50
2019-04-28T09:14:19.241Z,13.20
2019-04-28T09:16:47.937Z,12.95
2019-04-28T09:19:16.610Z,13.13
2019-04-28T09:21:45.284Z,13.42
2019-04-28T09:24:14.174Z,13.33
2019-04-28T09:26:42.884Z,13.56
2019-04-28T09:29:11.555Z,13.60
2019-04-28T09:31:40.238Z,14.24
2019-04-28T09:34:08.906Z,15.44
2019-04-28T09:36:37.604Z,16.89
2019-04-28T09:39:08.788Z,17.65
2019-04-28T09:41:39.111Z,19.42
2019-04-28T09:44:16.044Z,19.48
2019-04-28T09:46:44.817Z,20.04
2019-04-28T09:49:13.476Z,21.41
2019-04-28T09:51:42.169Z,22.38
2019-04-28T09:54:10.820Z,20.43
2019-04-28T09:56:39.587Z,17.99
2019-04-28T09:59:08.340Z,18.38
2019-04-28T10:01:37.027Z,19.72
2019-04-28T10:04:05.697Z,18.30
2019-04-28T10:06:34.461Z,19.72
2019-04-28T10:09:03.171Z,18.73
2019-04-28T10:11:31.847Z,19.30
2019-04-28T10:14:00.514Z,21.46
2019-04-28T10:16:29.178Z,20.31
2019-04-28T10:18:57.871Z,21.45
2019-04-28T10:21:26.553Z,22.28
2019-04-28T10:23:55.217Z,21.28
2019-04-28T10:26:23.991Z,20.24
2019-04-28T10:28:52.724Z,20.54
2019-04-28T10:31:21.398Z,19.75
2019-04-28T10:33:54.128Z,17.88
2019-04-28T10:36:23.070Z,18.29
2019-04-28T10:38:53.125Z,19.77
2019-04-28T10:41:34.889Z,19.51
2019-04-28T10:44:03.558Z,17.44
2019-04-28T10:46:32.230Z,15.96
2019-04-28T10:49:00.906Z,15.40
2019-04-28T10:51:29.596Z,14.11
2019-04-28T10:53:58.266Z,13.40
2019-04-28T10:56:26.934Z,12.92
2019-04-28T10:58:56.104Z,11.81
2019-04-28T11:01:24.774Z,11.49
2019-04-28T11:03:55.441Z,11.17
2019-04-28T11:06:24.228Z,10.47
2019-04-28T11:09:14.327Z,10.08
2019-04-28T11:11:43.017Z,10.14
2019-04-28T11:14:14.130Z,10.16
2019-04-28T11:16:42.214Z,10.08
2019-04-28T11:19:11.685Z,10.18
2019-04-28T11:21:40.385Z,10.06
2019-04-28T11:24:09.092Z,10.13
2019-04-28T11:26:37.761Z,10.43
2019-04-28T11:29:06.893Z,10.65
2019-04-28T11:31:35.578Z,11.02
2019-04-28T11:34:29.300Z,11.51
2019-04-28T11:36:57.171Z,11.84
2019-04-28T11:39:31.128Z,11.65
2019-04-28T11:41:59.824Z,12.28
2019-04-28T11:44:28.484Z,13.25
2019-04-28T11:46:57.426Z,14.08
2019-04-28T11:49:26.244Z,15.27
2019-04-28T11:51:54.992Z,16.24
2019-04-28T11:54:24.194Z,16.60
2019-04-28T11:56:52.986Z,16.89
2019-04-28T11:59:21.637Z,16.91
2019-04-28T12:01:50.399Z,16.11
2019-04-28T12:04:20.260Z,15.26
2019-04-28T12:06:48.920Z,13.67
2019-04-28T12:09:34.555Z,12.44
2019-04-28T12:12:04.538Z,12.36
2019-04-28T12:14:38.628Z,12.43
2019-04-28T12:17:26.906Z,12.76
2019-04-28T12:19:59.781Z,13.12
2019-04-28T12:22:28.464Z,15.79
2019-04-28T12:24:57.131Z,20.33
2019-04-28T12:27:25.858Z,21.29
2019-04-28T12:29:55.973Z,19.71
2019-04-28T12:32:24.710Z,18.09
2019-04-28T12:34:53.397Z,15.48
2019-04-28T12:37:22.133Z,12.71
2019-04-28T12:39:50.794Z,11.59
2019-04-28T12:42:19.481Z,11.47
2019-04-28T12:44:48.143Z,11.80
2019-04-28T12:47:16.796Z,11.92
2019-04-28T12:49:53.593Z,11.91
2019-04-28T12:52:22.255Z,12.24
2019-04-28T12:54:50.996Z,12.58
2019-04-28T12:57:19.697Z,12.50
2019-04-28T12:59:53.630Z,12.43
2019-04-28T13:02:35.034Z,12.37
2019-04-28T13:05:07.945Z,12.28
2019-04-28T13:07:36.635Z,12.59
2019-04-28T13:10:05.815Z,13.65
2019-04-28T13:12:34.504Z,14.31
2019-04-28T13:15:03.282Z,14.00
2019-04-28T13:17:31.941Z,13.90
2019-04-28T13:20:00.627Z,15.13
2019-04-28T13:22:29.308Z,17.39
2019-04-28T13:24:57.966Z,17.69
2019-04-28T13:27:26.757Z,17.52
2019-04-28T13:29:55.417Z,18.09
2019-04-28T13:32:24.078Z,18.50
2019-04-28T13:34:52.770Z,18.34
2019-04-28T13:37:21.433Z,20.92
2019-04-28T13:39:57.293Z,26.08
2019-04-28T13:42:25.926Z,28.74
2019-04-28T13:45:01.817Z,30.50
2019-04-28T13:47:30.546Z,30.79
2019-04-28T13:50:18.839Z,31.11
2019-04-28T13:52:47.520Z,28.00
2019-04-28T13:55:31.324Z,25.42
2019-04-28T13:58:01.428Z,24.29
2019-04-28T14:00:40.217Z,21.96
2019-04-28T14:03:21.943Z,19.20
2019-04-28T14:05:55.722Z,19.60
2019-04-28T14:08:24.440Z,19.36
2019-04-28T14:10:53.137Z,19.05
2019-04-28T14:13:21.879Z,18.49
2019-04-28T14:15:50.544Z,17.62
2019-04-28T14:18:19.250Z,16.52
2019-04-28T14:20:47.951Z,16.25
2019-04-28T14:23:16.607Z,15.76
2019-04-28T14:25:45.349Z,15.06
2019-04-28T14:28:14.010Z,14.84
2019-04-28T14:30:42.674Z,14.96
2019-04-28T14:33:11.384Z,15.12
2019-04-28T14:35:40.130Z,15.30
2019-04-28T14:38:08.848Z,15.31
2019-04-28T14:40:37.489Z,15.36
2019-04-28T14:43:06.194Z,15.41
2019-04-28T14:45:34.907Z,16.22
2019-04-28T14:48:03.658Z,16.96
2019-04-28T14:50:32.383Z,17.80
2019-04-28T14:53:01.024Z,18.55
2019-04-28T14:55:29.683Z,19.41
2019-04-28T14:57:58.389Z,19.24
2019-04-28T15:00:35.085Z,19.66
2019-04-28T15:03:07.186Z,19.26
2019-04-28T15:05:48.474Z,18.79
2019-04-28T15:08:42.625Z,18.43
2019-04-28T15:11:16.864Z,18.65
2019-04-28T15:13:55.500Z,19.33
2019-04-28T15:16:24.425Z,19.69
2019-04-28T15:18:53.108Z,19.49
2019-04-28T15:21:21.776Z,19.41
2019-04-28T15:23:50.433Z,18.33
2019-04-28T15:26:19.123Z,16.58
2019-04-28T15:28:47.780Z,16.53
2019-04-28T15:31:16.443Z,16.83
2019-04-28T15:33:45.527Z,17.02
2019-04-28T15:36:14.226Z,16.75
2019-04-28T15:38:42.919Z,16.58
2019-04-28T15:41:21.403Z,15.82
2019-04-28T15:43:42.117Z,15.00
2019-04-28T15:46:10.874Z,14.35
2019-04-28T15:48:39.529Z,14.06
2019-04-28T15:51:08.258Z,14.13
2019-04-28T15:53:37.015Z,14.94
2019-04-28T15:56:10.987Z,19.03
2019-04-28T15:58:40.176Z,23.72
2019-04-28T16:01:09.412Z,25.13
2019-04-28T16:03:38.100Z,25.13
2019-04-28T16:06:06.897Z,25.20
2019-04-28T16:08:35.558Z,26.03
2019-04-28T16:11:04.295Z,23.80
2019-04-28T16:13:32.998Z,20.27
2019-04-28T16:16:01.662Z,20.90
2019-04-28T16:18:30.319Z,23.20
2019-04-28T16:20:58.995Z,21.25
2019-04-28T16:23:27.683Z,21.25
2019-04-28T16:25:56.388Z,19.61
2019-04-28T16:28:25.156Z,18.13
2019-04-28T16:30:53.828Z,17.06
2019-04-28T16:33:22.513Z,15.99
2019-04-28T16:35:51.177Z,17.98
2019-04-28T16:38:19.850Z,18.03
2019-04-28T16:40:48.532Z,17.26
2019-04-28T16:43:17.220Z,17.92
2019-04-28T16:45:45.880Z,18.23
2019-04-28T16:48:14.636Z,18.22
2019-04-28T16:50:43.306Z,18.27
2019-04-28T16:53:12.033Z,20.31
2019-04-28T16:56:00.784Z,22.36
2019-04-28T16:58:41.009Z,21.80
2019-04-28T17:01:36.254Z,21.67
2019-04-28T17:04:05.706Z,22.38
2019-04-28T17:06:34.395Z,23.72
2019-04-28T17:09:03.330Z,23.72
2019-04-28T17:11:32.012Z,24.83
2019-04-28T17:14:00.676Z,22.62
2019-04-28T17:16:29.369Z,22.62
2019-04-28T17:18:58.049Z,21.50
2019-04-28T17:21:26.740Z,20.72
2019-04-28T17:23:55.431Z,20.46
2019-04-28T17:26:24.133Z,20.40
2019-04-28T17:28:52.816Z,20.10
2019-04-28T17:31:21.559Z,20.93
2019-04-28T17:33:50.321Z,20.83
2019-04-28T17:36:18.981Z,20.18
2019-04-28T17:38:47.644Z,18.98
2019-04-28T17:41:16.410Z,17.77
2019-04-28T17:43:45.089Z,17.24
2019-04-28T17:46:13.773Z,17.28
2019-04-28T17:48:47.790Z,16.84
2019-04-28T17:51:16.447Z,15.98
2019-04-28T17:53:45.108Z,15.64
2019-04-28T17:56:13.796Z,15.20
2019-04-28T17:58:42.454Z,14.92
2019-04-28T18:01:26.278Z,14.16
2019-04-28T18:04:05.169Z,13.98
2019-04-28T18:06:34.769Z,13.72
2019-04-28T18:09:05.414Z,13.15
2019-04-28T18:11:34.164Z,11.88
2019-04-28T18:14:04.199Z,10.88
2019-04-28T18:16:55.090Z,10.02
2019-04-28T18:19:23.943Z,9.65
2019-04-28T18:21:52.707Z,9.35
2019-04-28T18:24:21.417Z,9.16
2019-04-28T18:26:50.079Z,8.90
2019-04-28T18:29:18.735Z,8.73
2019-04-28T18:31:55.985Z,8.63
2019-04-28T18:34:36.983Z,8.52
2019-04-28T18:37:43.594Z,8.44
2019-04-28T18:40:23.391Z,8.30
2019-04-28T18:43:20.218Z,8.15
2019-04-28T18:45:48.904Z,7.88
2019-04-28T18:48:17.560Z,7.67
2019-04-28T18:50:46.219Z,7.56
2019-04-28T18:53:14.912Z,7.40
2019-04-28T18:55:43.568Z,7.30
2019-04-28T18:58:12.519Z,6.99
2019-04-28T19:00:44.520Z,6.76
2019-04-28T19:03:13.220Z,6.65
2019-04-28T19:05:43.539Z,6.49
2019-04-28T19:08:19.393Z,6.06
2019-04-28T19:11:07.030Z,6.22
2019-04-28T19:13:39.663Z,6.38
2019-04-28T19:16:42.480Z,6.44
2019-04-28T19:19:11.595Z,6.30
2019-04-28T19:21:41.904Z,6.31
2019-04-28T19:24:10.600Z,6.38
2019-04-28T19:26:39.292Z,6.49
2019-04-28T19:29:07.962Z,6.32
2019-04-28T19:31:36.654Z,5.86
2019-04-28T19:34:05.464Z,5.59
2019-04-28T19:36:34.203Z,5.81
2019-04-28T19:39:03.792Z,5.66
2019-04-28T19:41:32.537Z,5.28
2019-04-28T19:44:01.209Z,5.32
2019-04-28T19:46:29.905Z,5.21
2019-04-28T19:48:58.564Z,4.84
2019-04-28T19:51:31.879Z,4.78
2019-04-28T19:53:58.009Z,5.09
2019-04-28T19:56:54.641Z,5.29
2019-04-28T19:59:42.372Z,5.45
2019-04-28T20:02:11.117Z,5.50
2019-04-28T20:04:39.836Z,5.43
2019-04-28T20:07:08.495Z,5.37
2019-04-28T20:09:37.158Z,5.40
2019-04-28T20:12:05.820Z,5.33
2019-04-28T20:14:34.511Z,5.21
2019-04-28T20:17:03.187Z,5.25
2019-04-28T20:19:31.878Z,5.20
2019-04-28T20:22:00.540Z,5.18
2019-04-28T20:24:29.227Z,5.30
2019-04-28T20:26:57.950Z,5.27
2019-04-28T20:29:26.608Z,5.33
2019-04-28T20:31:55.274Z,5.43
2019-04-28T20:34:23.970Z,4.98
2019-04-28T20:37:14.585Z,4.65
2019-04-28T20:39:45.243Z,5.01
2019-04-28T20:42:31.887Z,5.23
2019-04-28T20:45:00.563Z,5.28
2019-04-28T20:47:29.225Z,5.14
2019-04-28T20:49:57.917Z,5.17
2019-04-28T20:52:26.575Z,4.89
2019-04-28T20:54:55.240Z,4.33
2019-04-28T20:57:23.938Z,3.94
2019-04-28T20:59:52.624Z,3.82
2019-04-28T21:02:21.285Z,3.98
2019-04-28T21:04:49.957Z,4.03
2019-04-28T21:07:18.665Z,4.07
2019-04-28T21:09:47.404Z,4.08
2019-04-28T21:12:16.013Z,3.83
2019-04-28T21:14:44.701Z,4.13
2019-04-28T21:17:13.368Z,4.12
2019-04-28T21:19:42.032Z,4.09
2019-04-28T21:22:10.716Z,3.96
2019-04-28T21:24:39.396Z,4.08
2019-04-28T21:27:08.126Z,4.17
2019-04-28T21:29:36.803Z,4.07
2019-04-28T21:32:05.454Z,4.11
2019-04-28T21:34:34.134Z,3.98
2019-04-28T21:37:02.797Z,4.04
2019-04-28T21:39:31.489Z,4.08
2019-04-28T21:42:01.625Z,4.09
2019-04-28T21:44:54.322Z,4.12
2019-04-28T21:47:26.326Z,4.15
2019-04-28T21:49:55.171Z,4.06
2019-04-28T21:52:23.838Z,3.93
2019-04-28T21:54:52.496Z,3.84
2019-04-28T21:57:21.197Z,3.97
2019-04-28T21:59:49.856Z,4.02
2019-04-28T22:02:18.526Z,3.94
2019-04-28T22:04:47.322Z,3.83
2019-04-28T22:07:16.315Z,3.76
2019-04-28T22:09:45.080Z,3.85
2019-04-28T22:12:13.753Z,3.98
2019-04-28T22:14:42.421Z,3.91
2019-04-28T22:17:11.119Z,3.78
2019-04-28T22:19:39.804Z,3.48
2019-04-28T22:22:08.473Z,3.23
2019-04-28T22:24:51.561Z,3.16
2019-04-28T22:27:26.441Z,3.20
2019-04-28T22:29:55.142Z,3.22
2019-04-28T22:32:23.805Z,3.14
2019-04-28T22:34:52.474Z,3.04
2019-04-28T22:37:21.165Z,3.14
2019-04-28T22:39:50.154Z,3.24
2019-04-28T22:42:18.852Z,3.30
2019-04-28T22:44:47.528Z,3.38
2019-04-28T22:47:16.202Z,3.37
2019-04-28T22:49:44.911Z,3.32
2019-04-28T22:52:13.590Z,3.32
2019-04-28T22:55:07.562Z,3.41
2019-04-28T22:57:47.178Z,3.47
2019-04-28T23:00:38.859Z,3.48
2019-04-28T23:03:09.680Z,3.39
2019-04-28T23:05:38.365Z,3.20
2019-04-28T23:08:07.152Z,3.18
2019-04-28T23:10:36.251Z,3.13
2019-04-28T23:13:05.022Z,3.00
2019-04-28T23:15:33.871Z,2.80
2019-04-28T23:18:02.540Z,2.65
2019-04-28T23:20:32.933Z,2.74
2019-04-28T23:23:04.218Z,2.84
2019-04-28T23:25:32.992Z,2.83
2019-04-28T23:28:01.677Z,2.78
2019-04-28T23:30:43.189Z,2.53
2019-04-28T23:33:11.928Z,2.34
2019-04-28T23:35:40.594Z,2.23
2019-04-28T23:38:09.286Z,2.14
2019-04-28T23:40:41.219Z,2.27
2019-04-28T23:43:14.779Z,2.25
2019-04-28T23:45:43.454Z,2.22
2019-04-28T23:48:12.134Z,2.15
2019-04-28T23:50:53.063Z,2.13
2019-04-28T23:53:40.806Z,2.24
2019-04-28T23:56:09.475Z,2.36
2019-04-28T23:58:38.147Z,2.39
